createdAt,value
2019-04-28T00:00:17.361Z,8.33
2019-04-28T00:02:51.686Z,9.77
2019-04-28T00:05:25.892Z,8.67
2019-04-28T00:08:10.784Z,8.70
2019-04-28T00:10:45.903Z,8.73
2019-04-28T00:13:20.897Z,8.97
2019-04-28T00:16:07.032Z,8.97
2019-04-28T00:18:51.094Z,8.97
2019-04-28T00:21:57.720Z,8.73
2019-04-28T00:24:53.568Z,9.17
2019-04-28T00:27:47.015Z,8.43
2019-04-28T00:30:31.717Z,9.13
2019-04-28T00:33:04.896Z,8.77
2019-04-28T00:35:38.416Z,8.97
2019-04-28T00:38:21.613Z,9.00
2019-04-28T00:40:56.106Z,9.17
2019-04-28T00:43:31.792Z,9.70
2019-04-28T00:46:07.470Z,9.27
2019-04-28T00:48:41.584Z,9.17
2019-04-28T00:51:14.890Z,9.37
2019-04-28T00:53:48.306Z,9.97
2019-04-28T00:56:22.277Z,10.13
2019-04-28T00:58:56.907Z,10.23
2019-04-28T01:01:51.874Z,9.77
2019-04-28T01:04:25.993Z,9.70
2019-04-28T01:07:08.654Z,10.37
2019-04-28T01:09:42.600Z,10.37
2019-04-28T01:12:17.303Z,11.17
2019-04-28T01:14:54.974Z,10.57
2019-04-28T01:17:45.841Z,10.53
2019-04-28T01:20:35.761Z,11.07
2019-04-28T01:23:10.348Z,10.97
2019-04-28T01:25:43.648Z,11.17
2019-04-28T01:28:19.518Z,10.13
2019-04-28T01:31:11.319Z,11.17
2019-04-28T01:34:04.319Z,11.03
2019-04-28T01:36:52.195Z,10.80
2019-04-28T01:39:25.748Z,11.67
2019-04-28T01:42:01.347Z,11.93
2019-04-28T01:44:35.173Z,11.07
2019-04-28T01:47:10.499Z,11.70
2019-04-28T01:49:43.691Z,11.83
2019-04-28T01:52:17.495Z,10.90
2019-04-28T01:54:51.223Z,11.40
2019-04-28T01:57:25.788Z,10.90
2019-04-28T01:59:59.831Z,11.30
2019-04-28T02:02:33.248Z,11.07
2019-04-28T02:05:09.651Z,10.60
2019-04-28T02:07:51.553Z,11.10
2019-04-28T02:10:24.743Z,10.77
2019-04-28T02:12:59.900Z,10.27
2019-04-28T02:15:33.840Z,10.50
2019-04-28T02:18:09.897Z,11.20
2019-04-28T02:20:59.854Z,10.77
2019-04-28T02:23:35.666Z,10.50
2019-04-28T02:26:19.575Z,10.93
2019-04-28T02:28:52.846Z,10.87
2019-04-28T02:31:26.419Z,10.37
2019-04-28T02:34:00.753Z,10.80
2019-04-28T02:36:50.643Z,10.30
2019-04-28T02:39:34.539Z,10.30
2019-04-28T02:42:20.612Z,11.47
2019-04-28T02:44:53.716Z,10.17
2019-04-28T02:47:27.323Z,10.33
2019-04-28T02:50:11.393Z,12.00
2019-04-28T02:53:05.423Z,11.47
2019-04-28T02:56:00.899Z,10.10
2019-04-28T02:58:34.670Z,9.90
2019-04-28T03:01:18.527Z,10.40
2019-04-28T03:03:44.237Z,9.63
2019-04-28T03:06:17.406Z,9.67
2019-04-28T03:08:51.451Z,10.03
2019-04-28T03:11:25.032Z,9.77
2019-04-28T03:14:00.979Z,10.17
2019-04-28T03:16:33.691Z,9.80
2019-04-28T03:19:07.434Z,9.37
2019-04-28T03:21:41.639Z,10.07
2019-04-28T03:24:15.559Z,9.97
2019-04-28T03:27:04.537Z,9.97
2019-04-28T03:30:02.963Z,9.43
2019-04-28T03:32:52.097Z,9.53
2019-04-28T03:35:16.132Z,9.70
2019-04-28T03:37:51.310Z,9.27
2019-04-28T03:40:24.530Z,9.83
2019-04-28T03:43:00.301Z,9.47
2019-04-28T03:45:40.956Z,9.60
2019-04-28T03:48:15.141Z,9.33
2019-04-28T03:50:51.204Z,9.77
2019-04-28T03:53:24.462Z,9.60
2019-04-28T03:55:57.642Z,9.37
2019-04-28T03:58:31.374Z,9.87
2019-04-28T04:01:05.002Z,10.33
2019-04-28T04:03:41.779Z,10.50
2019-04-28T04:06:14.854Z,10.60
2019-04-28T04:08:50.556Z,9.70
2019-04-28T04:11:41.461Z,10.23
2019-04-28T04:14:26.829Z,9.83
2019-04-28T04:17:06.857Z,9.37
2019-04-28T04:19:40.835Z,10.10
2019-04-28T04:22:31.399Z,9.97
2019-04-28T04:25:14.583Z,10.40
2019-04-28T04:28:03.770Z,9.70
2019-04-28T04:30:50.742Z,9.97
2019-04-28T04:33:24.424Z,10.00
2019-04-28T04:36:07.520Z,10.20
2019-04-28T04:38:51.362Z,9.77
2019-04-28T04:41:36.093Z,10.10
2019-04-28T04:44:21.137Z,10.23
2019-04-28T04:47:03.204Z,10.23
2019-04-28T04:49:40.314Z,9.43
2019-04-28T04:52:14.024Z,9.77
2019-04-28T04:55:02.137Z,10.50
2019-04-28T04:57:36.184Z,9.67
2019-04-28T05:00:11.997Z,9.50
2019-04-28T05:02:55.312Z,10.87
2019-04-28T05:05:35.804Z,10.10
2019-04-28T05:08:10.142Z,9.90
2019-04-28T05:10:54.291Z,10.43
2019-04-28T05:13:36.956Z,10.90
2019-04-28T05:16:14.351Z,10.37
2019-04-28T05:18:56.664Z,9.80
2019-04-28T05:21:33.132Z,10.13
2019-04-28T05:24:52.981Z,10.60
2019-04-28T05:27:25.769Z,11.03
2019-04-28T05:30:02.497Z,10.83
2019-04-28T05:32:44.644Z,11.13
2019-04-28T05:35:11.833Z,11.33
2019-04-28T05:37:45.975Z,11.23
2019-04-28T05:40:35.674Z,11.60
2019-04-28T05:43:10.655Z,11.73
2019-04-28T05:45:44.267Z,10.57
2019-04-28T05:48:40.793Z,10.80
2019-04-28T05:51:33.800Z,11.97
2019-04-28T05:54:19.845Z,11.57
2019-04-28T06:00:10.787Z,11.60
2019-04-28T06:02:54.128Z,11.33
2019-04-28T06:05:34.741Z,11.70
2019-04-28T06:08:21.710Z,11.00
2019-04-28T06:11:35.474Z,11.30
2019-04-28T06:14:19.782Z,10.90
2019-04-28T06:16:53.325Z,10.37
2019-04-28T06:19:26.802Z,10.63
2019-04-28T06:22:00.616Z,10.80
2019-04-28T06:24:35.172Z,10.63
2019-04-28T06:27:08.395Z,10.20
2019-04-28T06:29:42.355Z,10.67
2019-04-28T06:32:15.825Z,10.13
2019-04-28T06:34:49.114Z,10.70
2019-04-28T06:37:31.870Z,10.27
2019-04-28T06:40:14.211Z,10.20
2019-04-28T06:42:48.332Z,10.50
2019-04-28T06:45:31.357Z,11.60
2019-04-28T06:48:05.064Z,10.40
2019-04-28T06:50:39.447Z,11.13
2019-04-28T06:53:13.419Z,10.67
2019-04-28T06:55:56.564Z,10.67
2019-04-28T06:58:39.670Z,10.57
2019-04-28T07:01:13.214Z,10.57
2019-04-28T07:03:47.313Z,10.90
2019-04-28T07:06:20.850Z,12.00
2019-04-28T07:08:54.358Z,11.53
2019-04-28T07:11:27.796Z,11.23
2019-04-28T07:14:01.709Z,11.17
2019-04-28T07:16:36.319Z,10.87
2019-04-28T07:19:24.245Z,10.17
2019-04-28T07:22:06.508Z,11.07
2019-04-28T07:24:54.851Z,10.93
2019-04-28T07:27:28.663Z,10.63
2019-04-28T07:30:11.229Z,11.70
2019-04-28T07:32:44.937Z,11.37
2019-04-28T07:35:18.790Z,10.90
2019-04-28T07:38:14.709Z,10.67
2019-04-28T07:40:58.567Z,11.10
2019-04-28T07:43:49.999Z,11.60
2019-04-28T07:46:25.374Z,11.03
2019-04-28T07:48:59.129Z,11.90
2019-04-28T07:51:47.454Z,11.90
2019-04-28T07:54:21.114Z,11.57
2019-04-28T07:56:54.849Z,12.33
2019-04-28T07:59:28.395Z,12.97
2019-04-28T08:02:03.642Z,12.13
2019-04-28T08:04:42.187Z,11.93
2019-04-28T08:07:16.029Z,11.23
2019-04-28T08:10:00.549Z,11.97
2019-04-28T08:12:49.244Z,11.90
2019-04-28T08:15:22.840Z,12.47
2019-04-28T08:18:04.947Z,12.50
2019-04-28T08:20:54.885Z,12.30
2019-04-28T08:23:28.178Z,13.13
2019-04-28T08:26:06.658Z,12.77
2019-04-28T08:28:40.591Z,12.83
2019-04-28T08:31:15.932Z,13.20
2019-04-28T08:34:02.281Z,12.43
2019-04-28T08:36:29.211Z,12.37
2019-04-28T08:39:05.681Z,13.77
2019-04-28T08:41:39.511Z,13.37
2019-04-28T08:44:14.254Z,13.17
2019-04-28T08:46:49.847Z,13.33
2019-04-28T08:49:23.411Z,12.67
2019-04-28T08:51:57.217Z,13.60
2019-04-28T08:54:30.884Z,12.20
2019-04-28T08:57:04.189Z,13.87
2019-04-28T08:59:47.185Z,13.33
2019-04-28T09:02:22.183Z,12.73
2019-04-28T09:04:56.215Z,13.13
2019-04-28T09:07:29.748Z,13.13
2019-04-28T09:10:03.998Z,12.43
2019-04-28T09:12:46.988Z,13.40
2019-04-28T09:15:30.742Z,12.67
2019-04-28T09:18:04.760Z,13.03
2019-04-28T09:20:38.029Z,13.87
2019-04-28T09:23:12.653Z,12.17
2019-04-28T09:25:58.867Z,12.17
2019-04-28T09:28:32.955Z,12.17
2019-04-28T09:31:06.556Z,11.67
2019-04-28T09:33:41.497Z,11.50
2019-04-28T09:36:15.699Z,12.40
2019-04-28T09:38:57.621Z,11.60
2019-04-28T09:41:50.249Z,12.10
2019-04-28T09:44:25.616Z,12.63
2019-04-28T09:47:08.723Z,11.93
2019-04-28T09:49:51.159Z,12.47
2019-04-28T09:52:24.800Z,12.57
2019-04-28T09:54:58.666Z,12.30
2019-04-28T09:57:44.278Z,12.03
2019-04-28T10:00:17.954Z,11.37
2019-04-28T10:02:51.794Z,10.93
2019-04-28T10:05:34.179Z,9.17
2019-04-28T10:08:08.325Z,9.60
2019-04-28T10:10:51.514Z,7.10
2019-04-28T10:13:34.420Z,7.33
2019-04-28T10:16:18.998Z,6.30
2019-04-28T10:19:01.543Z,6.60
2019-04-28T10:21:35.508Z,5.80
2019-04-28T10:24:18.937Z,5.93
2019-04-28T10:26:53.242Z,7.30
2019-04-28T10:29:40.199Z,6.90
2019-04-28T10:32:15.008Z,7.70
2019-04-28T10:34:55.131Z,7.73
2019-04-28T10:37:35.485Z,8.33
2019-04-28T10:40:59.661Z,8.57
2019-04-28T10:43:32.511Z,8.47
2019-04-28T10:46:06.025Z,9.20
2019-04-28T10:48:40.554Z,8.53
2019-04-28T10:51:23.081Z,8.30
2019-04-28T10:53:58.642Z,7.40
2019-04-28T10:56:41.473Z,8.20
2019-04-28T10:59:24.362Z,8.37
2019-04-28T11:02:07.971Z,8.23
2019-04-28T11:05:07.832Z,8.67
2019-04-28T11:07:32.398Z,8.77
2019-04-28T11:10:17.995Z,8.33
2019-04-28T11:13:07.361Z,8.00
2019-04-28T11:15:50.511Z,8.63
2019-04-28T11:18:24.097Z,9.43
2019-04-28T11:20:57.628Z,9.70
2019-04-28T11:23:30.847Z,10.43
2019-04-28T11:26:19.925Z,9.63
2019-04-28T11:28:55.380Z,10.00
2019-04-28T11:31:29.317Z,9.57
2019-04-28T11:34:10.803Z,10.37
2019-04-28T11:36:45.094Z,10.87
2019-04-28T11:39:38.154Z,9.43
2019-04-28T11:42:12.026Z,9.20
2019-04-28T11:44:46.291Z,9.47
2019-04-28T11:47:21.609Z,8.60
2019-04-28T11:49:56.539Z,8.80
2019-04-28T11:52:30.092Z,8.70
2019-04-28T11:55:03.013Z,7.50
2019-04-28T11:57:36.518Z,8.87
2019-04-28T12:00:23.238Z,7.03
2019-04-28T12:02:56.909Z,7.50
2019-04-28T12:05:46.632Z,6.30
2019-04-28T12:08:20.178Z,5.87
2019-04-28T12:11:11.115Z,6.57
2019-04-28T12:14:09.803Z,7.20
2019-04-28T12:17:01.459Z,7.33
2019-04-28T12:19:53.980Z,8.33
2019-04-28T12:22:42.751Z,7.47
2019-04-28T12:25:25.248Z,7.40
2019-04-28T12:27:59.438Z,7.87
2019-04-28T12:30:33.488Z,6.77
2019-04-28T12:33:08.125Z,6.33
2019-04-28T12:35:52.029Z,6.70
2019-04-28T12:38:29.217Z,6.23
2019-04-28T12:41:12.074Z,5.60
2019-04-28T12:44:00.827Z,5.83
2019-04-28T12:46:45.165Z,5.50
2019-04-28T12:49:27.065Z,5.47
2019-04-28T12:52:20.593Z,5.70
2019-04-28T12:54:54.436Z,5.47
2019-04-28T12:57:28.427Z,5.63
2019-04-28T13:00:12.041Z,5.80
2019-04-28T13:03:19.684Z,5.37
2019-04-28T13:06:02.305Z,5.27
2019-04-28T13:08:29.188Z,5.00
2019-04-28T13:11:12.167Z,5.40
2019-04-28T13:13:46.965Z,5.00
2019-04-28T13:16:29.689Z,4.73
2019-04-28T13:19:03.207Z,4.90
2019-04-28T13:21:36.777Z,4.83
2019-04-28T13:24:11.076Z,4.77
2019-04-28T13:26:45.454Z,5.23
2019-04-28T13:29:18.808Z,4.50
2019-04-28T13:31:52.391Z,3.83
2019-04-28T13:34:28.473Z,4.70
2019-04-28T13:37:10.744Z,4.30
2019-04-28T13:39:57.793Z,4.30
2019-04-28T13:42:31.665Z,4.13
2019-04-28T13:45:08.607Z,4.13
2019-04-28T13:47:42.254Z,4.13
2019-04-28T13:50:35.209Z,3.90
2019-04-28T13:53:11.109Z,3.90
2019-04-28T13:56:01.064Z,3.30
2019-04-28T13:58:38.030Z,3.30
2019-04-28T14:01:43.132Z,3.60
2019-04-28T14:04:32.089Z,3.73
2019-04-28T14:07:07.131Z,3.30
2019-04-28T14:09:40.633Z,4.23
2019-04-28T14:12:13.830Z,3.93
2019-04-28T14:14:47.448Z,3.90
2019-04-28T14:17:20.885Z,2.70
2019-04-28T14:19:54.439Z,2.10
2019-04-28T14:22:29.107Z,2.43
2019-04-28T14:25:11.611Z,3.03
2019-04-28T14:27:45.225Z,2.60
2019-04-28T14:30:20.167Z,2.70
2019-04-28T14:32:53.429Z,2.40
2019-04-28T14:35:29.348Z,2.80
2019-04-28T14:38:03.583Z,3.10
2019-04-28T14:40:45.741Z,2.70
2019-04-28T14:43:19.206Z,2.90
2019-04-28T14:45:53.025Z,2.60
2019-04-28T14:48:27.084Z,2.20
2019-04-28T14:51:09.489Z,2.20
2019-04-28T14:53:42.753Z,2.13
2019-04-28T14:56:16.686Z,2.53
2019-04-28T14:58:52.337Z,2.20
2019-04-28T15:02:03.665Z,2.40
2019-04-28T15:04:55.167Z,2.50
2019-04-28T15:08:08.768Z,2.20
2019-04-28T15:11:05.468Z,1.97
2019-04-28T15:14:04.573Z,2.10
2019-04-28T15:16:38.453Z,2.10
2019-04-28T15:19:21.912Z,1.90
2019-04-28T15:21:55.812Z,2.10
2019-04-28T15:24:30.124Z,2.07
2019-04-28T15:27:13.666Z,2.00
2019-04-28T15:29:50.253Z,2.50
2019-04-28T15:32:34.287Z,2.53
2019-04-28T15:35:07.914Z,2.27
2019-04-28T15:37:41.927Z,2.10
2019-04-28T15:40:24.711Z,2.60
2019-04-28T15:43:07.185Z,3.60
2019-04-28T15:45:42.094Z,4.70
2019-04-28T15:48:16.485Z,4.00
2019-04-28T15:51:00.327Z,4.03
2019-04-28T15:53:36.375Z,4.60
2019-04-28T15:56:47.360Z,4.30
2019-04-28T15:59:24.481Z,4.20
2019-04-28T16:02:09.131Z,4.33
2019-04-28T16:04:53.901Z,3.97
2019-04-28T16:07:28.888Z,3.90
2019-04-28T16:10:03.498Z,3.60
2019-04-28T16:12:38.747Z,3.27
2019-04-28T16:15:21.266Z,3.23
2019-04-28T16:18:04.314Z,3.50
2019-04-28T16:20:49.953Z,3.13
2019-04-28T16:23:24.551Z,3.30
2019-04-28T16:25:59.239Z,3.10
2019-04-28T16:28:42.232Z,3.10
2019-04-28T16:31:16.822Z,9.67
2019-04-28T16:33:50.446Z,21.70
2019-04-28T16:36:25.024Z,9.97
2019-04-28T16:38:59.191Z,4.30
2019-04-28T16:41:40.075Z,5.07
2019-04-28T16:44:19.158Z,4.10
2019-04-28T16:46:54.687Z,3.30
2019-04-28T16:49:38.286Z,3.20
2019-04-28T16:52:12.112Z,3.43
2019-04-28T16:54:48.202Z,3.73
2019-04-28T16:57:46.448Z,3.77
2019-04-28T17:00:55.945Z,3.97
2019-04-28T17:03:31.205Z,4.23
2019-04-28T17:06:05.727Z,3.77
2019-04-28T17:08:40.604Z,3.57
2019-04-28T17:11:15.688Z,6.13
2019-04-28T17:13:58.591Z,4.30
2019-04-28T17:16:41.360Z,4.63
2019-04-28T17:19:23.701Z,4.10
2019-04-28T17:21:57.470Z,3.70
2019-04-28T17:24:31.413Z,3.40
2019-04-28T17:27:14.399Z,3.07
2019-04-28T17:29:57.276Z,3.03
2019-04-28T17:32:51.306Z,3.27
2019-04-28T17:35:26.035Z,4.13
2019-04-28T17:38:09.675Z,4.10
2019-04-28T17:40:44.993Z,4.27
2019-04-28T17:43:18.162Z,3.97
2019-04-28T17:45:51.523Z,3.93
2019-04-28T17:48:38.525Z,3.80
2019-04-28T17:51:28.662Z,3.43
2019-04-28T17:54:03.251Z,3.90
2019-04-28T17:56:49.566Z,3.60
2019-04-28T17:59:23.745Z,3.23
2019-04-28T18:02:32.338Z,3.40
2019-04-28T18:05:19.955Z,2.90
2019-04-28T18:07:59.044Z,3.00
2019-04-28T18:10:32.888Z,3.27
2019-04-28T18:13:10.579Z,3.00
2019-04-28T18:15:56.803Z,3.30
2019-04-28T18:18:53.441Z,3.40
2019-04-28T18:21:28.057Z,3.30
2019-04-28T18:24:02.728Z,3.20
2019-04-28T18:26:46.395Z,3.60
2019-04-28T18:29:20.296Z,3.40
2019-04-28T18:32:11.997Z,3.07
2019-04-28T18:35:12.708Z,3.27
2019-04-28T18:38:08.732Z,3.40
2019-04-28T18:40:59.127Z,3.23
2019-04-28T18:43:52.043Z,3.43
2019-04-28T18:46:29.573Z,2.90
2019-04-28T18:49:05.091Z,3.43
2019-04-28T18:51:40.662Z,2.93
2019-04-28T18:54:13.947Z,3.30
2019-04-28T18:56:52.076Z,3.10
2019-04-28T18:59:25.657Z,3.20
2019-04-28T19:02:13.058Z,3.40
2019-04-28T19:05:10.608Z,3.00
2019-04-28T19:08:23.373Z,3.00
2019-04-28T19:11:22.796Z,3.27
2019-04-28T19:14:00.639Z,3.00
2019-04-28T19:16:58.465Z,3.43
2019-04-28T19:19:33.079Z,3.40
2019-04-28T19:22:18.143Z,3.23
2019-04-28T19:24:53.686Z,3.27
2019-04-28T19:27:37.735Z,3.43
2019-04-28T19:30:11.952Z,3.50
2019-04-28T19:32:55.077Z,3.40
2019-04-28T19:35:37.552Z,3.90
2019-04-28T19:38:11.308Z,3.90
2019-04-28T19:40:58.831Z,4.60
2019-04-28T19:43:33.423Z,4.43
2019-04-28T19:46:09.635Z,4.60
2019-04-28T19:48:55.526Z,4.47
2019-04-28T19:51:43.385Z,4.97
2019-04-28T19:54:30.654Z,4.40
2019-04-28T19:57:37.611Z,4.47
2019-04-28T20:00:24.296Z,4.33
2019-04-28T20:02:58.011Z,4.60
2019-04-28T20:05:47.994Z,5.17
2019-04-28T20:08:22.141Z,4.57
2019-04-28T20:10:56.751Z,5.03
2019-04-28T20:13:31.576Z,5.37
2019-04-28T20:16:11.849Z,5.30
2019-04-28T20:18:48.649Z,5.07
2019-04-28T20:21:21.304Z,5.17
2019-04-28T20:23:55.181Z,4.90
2019-04-28T20:26:40.545Z,6.20
2019-04-28T20:29:15.113Z,6.13
2019-04-28T20:31:49.106Z,5.47
2019-04-28T20:34:22.721Z,5.13
2019-04-28T20:37:21.481Z,5.70
2019-04-28T20:40:01.964Z,5.67
2019-04-28T20:43:03.017Z,5.10
2019-04-28T20:45:35.808Z,5.40
2019-04-28T20:48:19.678Z,6.10
2019-04-28T20:50:52.928Z,5.90
2019-04-28T20:53:46.132Z,5.40
2019-04-28T20:56:34.939Z,5.63
2019-04-28T20:59:22.291Z,5.07
2019-04-28T21:01:56.510Z,5.70
2019-04-28T21:04:30.786Z,5.80
2019-04-28T21:07:14.271Z,6.73
2019-04-28T21:09:48.354Z,6.77
2019-04-28T21:12:24.284Z,6.13
2019-04-28T21:15:00.260Z,5.93
2019-04-28T21:17:34.700Z,6.70
2019-04-28T21:20:09.561Z,6.27
2019-04-28T21:23:00.242Z,6.80
2019-04-28T21:25:51.737Z,7.23
2019-04-28T21:28:34.733Z,6.47
2019-04-28T21:31:12.734Z,6.13
2019-04-28T21:33:55.977Z,6.33
2019-04-28T21:36:35.736Z,6.00
2019-04-28T21:39:24.295Z,5.80
2019-04-28T21:41:59.414Z,5.90
2019-04-28T21:44:48.383Z,5.60
2019-04-28T21:47:41.591Z,6.47
2019-04-28T21:50:29.069Z,6.23
2019-04-28T21:53:03.153Z,6.60
2019-04-28T21:55:41.153Z,6.43
2019-04-28T21:58:14.403Z,6.07
2019-04-28T22:01:00.188Z,6.43
2019-04-28T22:03:45.936Z,6.53
2019-04-28T22:06:21.195Z,7.03
2019-04-28T22:08:55.443Z,7.10
2019-04-28T22:11:41.726Z,6.70
2019-04-28T22:14:26.855Z,6.67
2019-04-28T22:17:00.381Z,7.23
2019-04-28T22:19:34.296Z,7.77
2019-04-28T22:22:23.254Z,6.90
2019-04-28T22:25:13.610Z,6.63
2019-04-28T22:27:47.828Z,6.67
2019-04-28T22:30:32.930Z,7.03
2019-04-28T22:33:15.853Z,6.83
2019-04-28T22:35:58.764Z,6.37
2019-04-28T22:38:41.251Z,6.63
2019-04-28T22:41:14.799Z,6.80
2019-04-28T22:43:48.723Z,7.27
2019-04-28T22:46:31.951Z,6.90
2019-04-28T22:49:06.457Z,6.53
2019-04-28T22:51:40.763Z,7.00
2019-04-28T22:54:30.317Z,7.50
2019-04-28T22:57:46.529Z,6.97
2019-04-28T23:00:50.271Z,7.20
2019-04-28T23:03:37.902Z,7.37
2019-04-28T23:06:36.467Z,6.67
2019-04-28T23:09:11.883Z,7.57
2019-04-28T23:11:54.610Z,7.07
2019-04-28T23:14:27.783Z,6.73
2019-04-28T23:17:01.288Z,7.10
2019-04-28T23:19:38.281Z,6.73
2019-04-28T23:22:26.945Z,6.53
2019-04-28T23:25:17.111Z,6.87
2019-04-28T23:27:59.661Z,6.57
2019-04-28T23:30:41.831Z,7.17
2019-04-28T23:33:33.108Z,6.73
2019-04-28T23:36:06.988Z,6.90
2019-04-28T23:38:56.226Z,6.57
2019-04-28T23:41:38.514Z,7.00
2019-04-28T23:44:12.395Z,6.97
2019-04-28T23:46:56.280Z,7.20
2019-04-28T23:49:36.470Z,7.57
2019-04-28T23:52:38.375Z,7.03
2019-04-28T23:55:27.978Z,7.47
2019-04-28T23:58:01.837Z,7.43
